Time;durP1;ratioP1;P1;durP2;ratioP2;P2;SDS_P1;SDS_P2;PMS_P1;PMS_P2;Temp;Humidity;BMP_temperature;BMP_pressure;BME280_temperature;BME280_humidity;BME280_pressure;Samples;Min_cycle;Max_cycle;Signal;HPM_P1;HPM_P2
2023/02/13 00:02:16;;;;;;;1999.90;999.90;;;8.90;99.90;;;;;;5043580;28;20428;-69
2023/02/13 00:04:41;;;;;;;1999.90;999.90;;;9.00;99.90;;;;;;5061067;28;20171;-69
2023/02/13 00:07:10;;;;;;;1999.90;999.90;;;9.00;99.90;;;;;;5060054;28;20684;-69
2023/02/13 00:09:36;;;;;;;1999.90;999.90;;;8.80;99.90;;;;;;5057881;28;20823;-68
2023/02/13 00:12:02;;;;;;;1999.90;999.90;;;8.90;99.90;;;;;;5057851;28;20412;-69
2023/02/13 00:14:27;;;;;;;1999.90;999.90;;;8.80;99.90;;;;;;5058728;28;20167;-69
2023/02/13 00:16:53;;;;;;;1999.90;999.90;;;8.80;99.90;;;;;;5057055;28;20169;-69
2023/02/13 00:19:18;;;;;;;1999.90;999.90;;;8.80;99.90;;;;;;5056107;28;20220;-69
2023/02/13 00:21:44;;;;;;;1999.90;999.90;;;8.70;99.90;;;;;;5056057;28;20537;-68
2023/02/13 00:24:09;;;;;;;1999.90;999.90;;;8.60;99.90;;;;;;5056094;28;20188;-69
2023/02/13 00:26:35;;;;;;;1999.90;999.90;;;8.60;99.90;;;;;;5055686;28;20195;-69
2023/02/13 00:29:00;;;;;;;1999.90;999.90;;;8.50;99.90;;;;;;5057426;28;20212;-69
2023/02/13 00:31:26;;;;;;;1999.90;999.90;;;8.40;99.90;;;;;;5057189;28;20225;-69
2023/02/13 00:33:52;;;;;;;1999.90;999.90;;;8.30;99.90;;;;;;5056835;28;20272;-69
2023/02/13 00:36:21;;;;;;;1999.90;999.90;;;8.20;99.90;;;;;;5053998;28;20231;-69
2023/02/13 00:38:48;;;;;;;1999.90;999.90;;;8.20;99.90;;;;;;5054045;28;20269;-69
2023/02/13 00:41:16;;;;;;;1999.90;999.90;;;8.10;99.90;;;;;;5053808;28;20460;-69
2023/02/13 00:43:42;;;;;;;1999.90;999.90;;;8.10;99.90;;;;;;5053916;28;20409;-69
2023/02/13 00:46:08;;;;;;;1999.90;999.90;;;8.10;99.90;;;;;;5053845;28;20404;-69
2023/02/13 00:48:34;;;;;;;1999.90;999.90;;;8.10;99.90;;;;;;5053898;28;20422;-69
2023/02/13 00:51:00;;;;;;;1999.90;999.90;;;8.10;99.90;;;;;;5053636;28;20687;-69
2023/02/13 00:53:26;;;;;;;1999.90;999.90;;;8.10;99.90;;;;;;5054072;28;20443;-69
2023/02/13 00:55:52;;;;;;;1999.90;999.90;;;8.00;99.90;;;;;;5053643;28;20411;-69
2023/02/13 00:58:18;;;;;;;1999.90;999.90;;;8.00;99.90;;;;;;5053696;28;20263;-69
2023/02/13 01:00:48;;;;;;;1999.90;999.90;;;8.00;99.90;;;;;;5053486;28;20192;-69
2023/02/13 01:03:17;;;;;;;1999.90;999.90;;;8.00;99.90;;;;;;5053650;28;20414;-69
2023/02/13 01:05:43;;;;;;;1999.90;999.90;;;7.90;99.90;;;;;;5053575;28;20457;-68
2023/02/13 01:08:10;;;;;;;1999.90;999.90;;;7.80;99.90;;;;;;5053505;28;20411;-69
2023/02/13 01:10:40;;;;;;;1999.90;999.90;;;7.80;99.90;;;;;;5053361;28;20460;-69
2023/02/13 01:13:06;;;;;;;1999.90;999.90;;;7.80;99.90;;;;;;5053490;28;20399;-69
2023/02/13 01:15:32;;;;;;;1999.90;999.90;;;7.80;99.90;;;;;;5053453;28;20469;-68
2023/02/13 01:17:59;;;;;;;1999.90;999.90;;;7.80;99.90;;;;;;5053271;28;20914;-68
2023/02/13 01:20:26;;;;;;;1999.90;999.90;;;7.70;99.90;;;;;;5053073;28;20442;-70
2023/02/13 01:22:52;;;;;;;1999.90;999.90;;;7.70;99.90;;;;;;5053285;28;20406;-68
2023/02/13 01:25:17;;;;;;;1999.90;999.90;;;7.70;99.90;;;;;;5053196;28;20440;-69
2023/02/13 01:27:43;;;;;;;1999.90;999.90;;;7.80;99.90;;;;;;5053025;28;20402;-68
2023/02/13 01:30:13;;;;;;;1999.90;999.90;;;7.80;99.90;;;;;;5052921;28;20203;-69
2023/02/13 01:32:40;;;;;;;1999.90;999.90;;;7.80;99.90;;;;;;5053070;28;20160;-69
2023/02/13 01:35:06;;;;;;;1999.90;999.90;;;7.90;99.90;;;;;;5053294;28;20422;-69
2023/02/13 01:37:32;;;;;;;1999.90;999.90;;;7.90;99.90;;;;;;5052843;28;20402;-68
2023/02/13 01:39:57;;;;;;;1999.90;999.90;;;7.90;99.90;;;;;;5052781;28;20466;-69
2023/02/13 01:42:29;;;;;;;1999.90;999.90;;;8.00;99.90;;;;;;5052705;28;20309;-68
2023/02/13 01:44:59;;;;;;;1999.90;999.90;;;7.90;99.90;;;;;;5052579;28;20166;-68
2023/02/13 01:47:41;;;;;;;1999.90;999.90;;;8.00;99.90;;;;;;5052238;28;20395;-69
2023/02/13 01:50:16;;;;;;;1999.90;999.90;;;8.00;99.90;;;;;;5052522;28;20414;-69
2023/02/13 01:53:05;;;;;;;1999.90;999.90;;;8.00;99.90;;;;;;5052703;28;20535;-69
2023/02/13 01:55:33;;;;;;;1999.90;999.90;;;8.10;99.90;;;;;;5052646;28;20401;-69
2023/02/13 01:58:17;;;;;;;1999.90;999.90;;;8.10;99.90;;;;;;5052452;28;20410;-68
2023/02/13 02:00:48;;;;;;;1999.90;999.90;;;8.10;99.90;;;;;;5052464;28;20797;-69
2023/02/13 02:03:19;;;;;;;1999.90;999.90;;;8.00;99.90;;;;;;5052608;28;20408;-69
2023/02/13 02:05:46;;;;;;;1999.90;999.90;;;8.00;99.90;;;;;;5052636;28;20480;-69
2023/02/13 02:08:13;;;;;;;1999.90;999.90;;;8.10;99.90;;;;;;5052227;28;20795;-69
2023/02/13 02:10:39;;;;;;;1999.90;999.90;;;8.00;99.90;;;;;;5052113;28;20417;-68
2023/02/13 02:13:13;;;;;;;1999.90;999.90;;;8.00;99.90;;;;;;5052365;28;20402;-68
2023/02/13 02:15:41;;;;;;;1999.90;999.90;;;8.00;99.90;;;;;;5052314;28;20412;-69
2023/02/13 02:18:18;;;;;;;1999.90;999.90;;;7.90;99.90;;;;;;5052104;28;20402;-70
2023/02/13 02:21:08;;;;;;;1999.90;999.90;;;8.00;99.90;;;;;;5051886;28;20456;-69
2023/02/13 02:24:12;;;;;;;1999.90;999.90;;;8.00;99.90;;;;;;5052233;28;20394;-69
2023/02/13 02:26:56;;;;;;;1999.90;999.90;;;8.00;99.90;;;;;;5051950;28;20405;-68
2023/02/13 02:29:46;;;;;;;1999.90;999.90;;;8.00;99.90;;;;;;5052033;28;20514;-69
2023/02/13 02:32:29;;;;;;;1999.90;999.90;;;7.90;99.90;;;;;;5051884;28;20895;-69
2023/02/13 02:35:26;;;;;;;1999.90;999.90;;;7.80;99.90;;;;;;5051991;28;20401;-69
2023/02/13 02:38:35;;;;;;;1999.90;999.90;;;7.80;99.90;;;;;;5051911;28;20547;-68
2023/02/13 02:41:04;;;;;;;1999.90;999.90;;;7.70;99.90;;;;;;5046701;28;20458;-69
2023/02/13 02:43:51;;;;;;;1999.90;999.90;;;7.60;99.90;;;;;;5051834;28;20407;-68
2023/02/13 02:46:38;;;;;;;1999.90;999.90;;;7.60;99.90;;;;;;5051848;28;20390;-69
2023/02/13 02:52:23;;;;;;;1999.90;999.90;;;7.50;99.90;;;;;;5051790;28;20429;-69
2023/02/13 02:55:05;;;;;;;1999.90;999.90;;;7.40;99.90;;;;;;5051994;28;20481;-69
2023/02/13 03:06:13;;;;;;;1999.90;999.90;;;7.20;99.90;;;;;;5056212;28;20817;-68
2023/02/13 03:14:16;;;;;;;1999.90;999.90;;;7.00;99.90;;;;;;5056309;28;20418;-69
2023/02/13 03:22:38;;;;;;;1999.90;999.90;;;6.80;99.90;;;;;;5055791;28;20809;-69
2023/02/13 03:25:32;;;;;;;1999.90;999.90;;;6.90;99.90;;;;;;5061646;28;20740;-69
2023/02/13 03:31:41;;;;;;;1999.90;999.90;;;6.90;99.90;;;;;;5032253;28;20463;-69
2023/02/13 03:34:13;;;;;;;1999.90;999.90;;;6.80;99.90;;;;;;5061932;28;20402;-69
2023/02/13 03:40:05;;;;;;;1999.90;999.90;;;6.70;99.90;;;;;;5060517;28;20440;-69
2023/02/13 03:42:30;;;;;;;1999.90;999.90;;;6.70;99.90;;;;;;5059447;28;20891;-69
2023/02/13 03:47:46;;;;;;;1999.90;999.90;;;6.60;99.90;;;;;;5057653;28;20171;-69
2023/02/13 03:50:13;;;;;;;1999.90;999.90;;;6.60;99.90;;;;;;5057086;28;20451;-69
2023/02/13 03:52:48;;;;;;;1999.90;999.90;;;6.70;99.90;;;;;;5058140;28;20417;-69
2023/02/13 04:01:01;;;;;;;1999.90;999.90;;;6.60;99.90;;;;;;5058749;28;20453;-68
2023/02/13 04:04:02;;;;;;;1999.90;999.90;;;6.60;99.90;;;;;;5056063;28;20456;-68
2023/02/13 04:06:41;;;;;;;1999.90;999.90;;;6.60;99.90;;;;;;5055854;28;20392;-68
2023/02/13 04:09:06;;;;;;;1999.90;999.90;;;6.60;99.90;;;;;;5054689;28;20899;-68
2023/02/13 04:11:37;;;;;;;1999.90;999.90;;;6.60;99.90;;;;;;5056052;28;20422;-68
2023/02/13 04:14:34;;;;;;;1999.90;999.90;;;6.50;99.90;;;;;;5056695;28;20660;-67
2023/02/13 04:17:16;;;;;;;1999.90;999.90;;;6.60;99.90;;;;;;5017280;28;20512;-68
2023/02/13 04:19:41;;;;;;;1999.90;999.90;;;6.60;99.90;;;;;;5055408;28;20434;-68
2023/02/13 04:22:07;;;;;;;1999.90;999.90;;;6.50;99.90;;;;;;5055498;28;20417;-67
2023/02/13 04:24:32;;;;;;;1999.90;999.90;;;6.50;99.90;;;;;;5055636;28;20175;-67
2023/02/13 04:26:58;;;;;;;1999.90;999.90;;;6.50;99.90;;;;;;5055359;28;20176;-68
2023/02/13 04:29:25;;;;;;;1999.90;999.90;;;6.50;99.90;;;;;;5055326;28;20188;-68
2023/02/13 04:31:51;;;;;;;1999.90;999.90;;;6.50;99.90;;;;;;5055422;28;20206;-68
2023/02/13 04:34:16;;;;;;;1999.90;999.90;;;6.50;99.90;;;;;;5055498;28;20410;-68
2023/02/13 04:36:42;;;;;;;1999.90;999.90;;;6.50;99.90;;;;;;5055150;28;20184;-67
2023/02/13 04:39:08;;;;;;;1999.90;999.90;;;6.50;99.90;;;;;;5054938;28;20973;-67
2023/02/13 04:41:34;;;;;;;1999.90;999.90;;;6.50;99.90;;;;;;5055362;28;20261;-67
2023/02/13 04:43:59;;;;;;;1999.90;999.90;;;6.40;99.90;;;;;;5055213;28;20417;-68
2023/02/13 04:46:25;;;;;;;1999.90;999.90;;;6.40;99.90;;;;;;5055255;28;20180;-67
2023/02/13 04:48:50;;;;;;;1999.90;999.90;;;6.40;99.90;;;;;;5055219;28;20194;-68
2023/02/13 04:51:16;;;;;;;1999.90;999.90;;;6.40;99.90;;;;;;5054833;28;20172;-67
2023/02/13 04:53:42;;;;;;;1999.90;999.90;;;6.40;99.90;;;;;;5055453;28;20652;-68
2023/02/13 04:56:07;;;;;;;1999.90;999.90;;;6.30;99.90;;;;;;5054984;28;20203;-68
2023/02/13 04:58:33;;;;;;;1999.90;999.90;;;6.40;99.90;;;;;;5054753;28;20282;-68
2023/02/13 05:00:58;;;;;;;1999.90;999.90;;;6.40;99.90;;;;;;5055608;28;20188;-69
2023/02/13 05:03:24;;;;;;;1999.90;999.90;;;6.40;99.90;;;;;;5056905;28;20171;-69
2023/02/13 05:05:49;;;;;;;1999.90;999.90;;;6.40;99.90;;;;;;5057182;28;20168;-69
2023/02/13 05:08:15;;;;;;;1999.90;999.90;;;6.40;99.90;;;;;;5057149;28;20179;-69
2023/02/13 05:10:41;;;;;;;1999.90;999.90;;;6.30;99.90;;;;;;5056469;28;20174;-69
2023/02/13 05:13:07;;;;;;;1999.90;999.90;;;6.30;99.90;;;;;;5055452;28;20180;-69
2023/02/13 05:15:32;;;;;;;1999.90;999.90;;;6.30;99.90;;;;;;5055916;28;20263;-69
2023/02/13 05:17:58;;;;;;;1999.90;999.90;;;6.40;99.90;;;;;;5055785;28;20190;-69
2023/02/13 05:20:24;;;;;;;1999.90;999.90;;;6.30;99.90;;;;;;5055501;28;20199;-68
2023/02/13 05:25:37;;;;;;;1999.90;999.90;;;6.20;99.90;;;;;;5056473;28;20174;-69
2023/02/13 05:28:04;;;;;;;1999.90;999.90;;;6.00;99.90;;;;;;5055353;28;20406;-70
2023/02/13 05:30:30;;;;;;;1999.90;999.90;;;6.10;99.90;;;;;;5055479;28;20442;-68
2023/02/13 05:32:55;;;;;;;1999.90;999.90;;;6.10;99.90;;;;;;5057871;28;20752;-68
2023/02/13 05:35:22;;;;;;;1999.90;999.90;;;6.00;99.90;;;;;;5058134;28;20508;-69
2023/02/13 05:37:48;;;;;;;1999.90;999.90;;;6.00;99.90;;;;;;5054575;28;20418;-69
2023/02/13 05:40:14;;;;;;;1999.90;999.90;;;6.00;99.90;;;;;;5054641;28;20212;-69
2023/02/13 05:42:42;;;;;;;1999.90;999.90;;;5.90;99.90;;;;;;5054367;28;20232;-68
2023/02/13 05:45:09;;;;;;;1999.90;999.90;;;5.90;99.90;;;;;;5053055;28;20903;-68
2023/02/13 05:47:34;;;;;;;1999.90;999.90;;;5.90;99.90;;;;;;5052961;28;20485;-68
2023/02/13 05:50:00;;;;;;;1999.90;999.90;;;5.80;99.90;;;;;;5053106;28;20469;-68
2023/02/13 05:52:26;;;;;;;1999.90;999.90;;;5.80;99.90;;;;;;5053019;28;20175;-68
2023/02/13 05:54:52;;;;;;;1999.90;999.90;;;5.70;99.90;;;;;;5053013;28;20179;-68
2023/02/13 05:57:18;;;;;;;1999.90;999.90;;;5.70;99.90;;;;;;5052730;28;20172;-68
2023/02/13 05:59:43;;;;;;;1999.90;999.90;;;5.80;99.90;;;;;;5052685;28;20191;-68
2023/02/13 06:02:09;;;;;;;1999.90;999.90;;;5.80;99.90;;;;;;5052590;28;20406;-68
2023/02/13 06:04:35;;;;;;;1999.90;999.90;;;5.80;99.90;;;;;;5052856;28;20160;-68
2023/02/13 06:07:01;;;;;;;1999.90;999.90;;;5.70;99.90;;;;;;5052771;28;20164;-68
2023/02/13 06:09:27;;;;;;;1999.90;999.90;;;5.70;99.90;;;;;;5052739;28;20245;-68
2023/02/13 06:11:52;;;;;;;1999.90;999.90;;;5.70;99.90;;;;;;5052582;28;20402;-68
2023/02/13 06:14:18;;;;;;;1999.90;999.90;;;5.70;99.90;;;;;;5052974;28;20187;-68
2023/02/13 06:16:44;;;;;;;1999.90;999.90;;;5.60;99.90;;;;;;5052559;28;20621;-68
2023/02/13 06:19:09;;;;;;;1999.90;999.90;;;5.60;99.90;;;;;;5052562;28;20555;-68
2023/02/13 06:21:36;;;;;;;1999.90;999.90;;;5.60;99.90;;;;;;5052255;28;20234;-68
2023/02/13 06:24:06;;;;;;;1999.90;999.90;;;5.50;99.90;;;;;;5052684;28;20237;-68
2023/02/13 06:26:32;;;;;;;1999.90;999.90;;;5.50;99.90;;;;;;5052613;28;20493;-68
2023/02/13 06:28:58;;;;;;;1999.90;999.90;;;5.40;99.90;;;;;;5052549;28;20453;-68
2023/02/13 06:31:23;;;;;;;1999.90;999.90;;;5.50;99.90;;;;;;5051918;28;20493;-68
2023/02/13 06:33:49;;;;;;;1999.90;999.90;;;5.40;99.90;;;;;;5052478;28;20250;-68
2023/02/13 06:36:14;;;;;;;1999.90;999.90;;;5.40;99.90;;;;;;5052767;28;20179;-68
2023/02/13 06:38:40;;;;;;;1999.90;999.90;;;5.40;99.90;;;;;;5052856;28;20233;-68
2023/02/13 06:41:05;;;;;;;1999.90;999.90;;;5.40;99.90;;;;;;5052824;28;20660;-68
2023/02/13 06:43:31;;;;;;;1999.90;999.90;;;5.40;99.90;;;;;;5052914;28;20175;-68
2023/02/13 06:45:57;;;;;;;1999.90;999.90;;;5.40;99.90;;;;;;5052782;28;20632;-68
2023/02/13 06:48:24;;;;;;;1999.90;999.90;;;5.40;99.90;;;;;;5052562;28;20422;-68
2023/02/13 06:50:51;;;;;;;1999.90;999.90;;;5.40;99.90;;;;;;5052373;28;20414;-68
2023/02/13 06:53:18;;;;;;;1999.90;999.90;;;5.30;99.90;;;;;;5052658;28;20406;-68
2023/02/13 06:55:44;;;;;;;1999.90;999.90;;;5.30;99.90;;;;;;5052028;28;20417;-69
2023/02/13 06:58:10;;;;;;;1999.90;999.90;;;5.30;99.90;;;;;;5052074;28;20501;-68
2023/02/13 07:00:36;;;;;;;1999.90;999.90;;;5.30;99.90;;;;;;5052386;28;20661;-68
2023/02/13 07:03:04;;;;;;;1999.90;999.90;;;5.30;99.90;;;;;;5052612;28;20183;-68
2023/02/13 07:05:30;;;;;;;1999.90;999.90;;;5.30;99.90;;;;;;5052476;28;20448;-67
2023/02/13 07:07:55;;;;;;;1999.90;999.90;;;5.30;99.90;;;;;;5052360;28;20410;-68
2023/02/13 07:10:21;;;;;;;1999.90;999.90;;;5.40;99.90;;;;;;5052383;28;20460;-68
2023/02/13 07:12:47;;;;;;;1999.90;999.90;;;5.40;99.90;;;;;;5052439;28;20171;-68
2023/02/13 07:15:12;;;;;;;1999.90;999.90;;;5.40;99.90;;;;;;5052178;28;20266;-68
2023/02/13 07:17:38;;;;;;;1999.90;999.90;;;5.50;99.90;;;;;;5051960;28;20501;-68
2023/02/13 07:20:05;;;;;;;1999.90;999.90;;;5.60;99.90;;;;;;5051757;28;20613;-68
2023/02/13 07:22:31;;;;;;;1999.90;999.90;;;5.60;99.90;;;;;;5051974;28;20266;-68
2023/02/13 07:24:57;;;;;;;1999.90;999.90;;;5.60;99.90;;;;;;5051949;28;20442;-68
2023/02/13 07:27:23;;;;;;;1999.90;999.90;;;5.70;99.90;;;;;;5052182;28;20492;-68
2023/02/13 07:29:49;;;;;;;1999.90;999.90;;;5.70;99.90;;;;;;5051964;28;20467;-68
2023/02/13 07:32:14;;;;;;;1999.90;999.90;;;5.60;99.90;;;;;;5052269;28;20168;-68
2023/02/13 07:34:40;;;;;;;1999.90;999.90;;;5.70;99.90;;;;;;5051837;28;20171;-68
2023/02/13 07:37:06;;;;;;;1999.90;999.90;;;5.80;99.90;;;;;;5052089;28;20172;-68
2023/02/13 07:39:31;;;;;;;1999.90;999.90;;;5.80;99.90;;;;;;5052123;28;20593;-68
2023/02/13 07:41:57;;;;;;;1999.90;999.90;;;5.90;99.90;;;;;;5051728;28;20254;-68
2023/02/13 07:44:23;;;;;;;1999.90;999.90;;;5.90;99.90;;;;;;5054837;28;20168;-68
2023/02/13 07:46:48;;;;;;;1999.90;999.90;;;6.00;99.90;;;;;;5055483;28;20238;-68
2023/02/13 07:49:14;;;;;;;1999.90;999.90;;;6.00;99.90;;;;;;5055801;28;20214;-68
2023/02/13 07:51:39;;;;;;;1999.90;999.90;;;6.10;99.90;;;;;;5055626;28;20167;-68
2023/02/13 07:54:05;;;;;;;1999.90;999.90;;;6.10;99.90;;;;;;5055453;28;20175;-68
2023/02/13 07:56:30;;;;;;;1999.90;999.90;;;6.10;99.90;;;;;;5055555;28;20247;-69
2023/02/13 07:58:56;;;;;;;1999.90;999.90;;;6.20;99.90;;;;;;5057761;28;20191;-69
2023/02/13 08:01:22;;;;;;;1999.90;999.90;;;6.30;99.90;;;;;;5057646;28;20207;-69
2023/02/13 08:03:51;;;;;;;1999.90;999.90;;;6.90;99.90;;;;;;5059623;28;20234;-69
2023/02/13 08:06:18;;;;;;;1999.90;999.90;;;6.40;99.90;;;;;;5060142;28;20164;-69
2023/02/13 08:08:44;;;;;;;1999.90;999.90;;;6.50;99.90;;;;;;5061106;28;20432;-69
2023/02/13 08:14:09;;;;;;;1999.90;999.90;;;6.60;99.90;;;;;;5059623;28;20261;-69
2023/02/13 08:16:35;;;;;;;1999.90;999.90;;;6.70;99.90;;;;;;5061156;28;20410;-70
2023/02/13 08:19:00;;;;;;;1999.90;999.90;;;6.80;99.90;;;;;;5061117;28;20192;-69
2023/02/13 08:21:26;;;;;;;1999.90;999.90;;;6.90;99.90;;;;;;5058591;28;20219;-69
2023/02/13 08:23:51;;;;;;;1999.90;999.90;;;6.90;99.90;;;;;;5056591;28;20234;-68
2023/02/13 08:26:17;;;;;;;1999.90;999.90;;;7.00;99.90;;;;;;5022506;28;20686;-69
2023/02/13 08:28:43;;;;;;;1999.90;999.90;;;7.10;99.90;;;;;;5039180;28;20193;-69
2023/02/13 08:31:12;;;;;;;1999.90;999.90;;;7.20;99.90;;;;;;5039712;28;20183;-69
2023/02/13 08:33:40;;;;;;;1999.90;999.90;;;7.20;99.90;;;;;;5039325;28;20709;-69
2023/02/13 08:36:06;;;;;;;1999.90;999.90;;;7.30;99.90;;;;;;5040947;28;20407;-69
2023/02/13 08:38:31;;;;;;;1999.90;999.90;;;7.30;99.90;;;;;;5040660;28;20497;-69
2023/02/13 08:40:57;;;;;;;1999.90;999.90;;;7.50;99.90;;;;;;5039618;28;20450;-69
2023/02/13 08:43:23;;;;;;;1999.90;999.90;;;7.50;99.90;;;;;;5039803;28;20406;-69
2023/02/13 08:45:49;;;;;;;1999.90;999.90;;;7.70;99.90;;;;;;5037559;28;20231;-69
2023/02/13 08:48:14;;;;;;;1999.90;999.90;;;7.70;99.90;;;;;;5036018;28;20413;-68
2023/02/13 08:50:40;;;;;;;1999.90;999.90;;;7.80;99.90;;;;;;5038329;28;20185;-70
2023/02/13 08:53:05;;;;;;;1999.90;999.90;;;7.80;99.90;;;;;;5038705;28;20168;-69
2023/02/13 08:55:31;;;;;;;1999.90;999.90;;;7.90;99.90;;;;;;5036173;28;20191;-69
2023/02/13 08:58:01;;;;;;;1999.90;999.90;;;7.90;99.90;;;;;;5035362;28;20177;-68
2023/02/13 09:00:27;;;;;;;1999.90;999.90;;;8.00;99.90;;;;;;5034439;28;20188;-68
2023/02/13 09:02:53;;;;;;;1999.90;999.90;;;8.10;99.90;;;;;;5034266;28;20481;-68
2023/02/13 09:05:18;;;;;;;1999.90;999.90;;;8.20;99.90;;;;;;5034321;28;20407;-68
2023/02/13 09:07:44;;;;;;;1999.90;999.90;;;8.30;99.90;;;;;;5033984;28;20173;-68
2023/02/13 09:10:10;;;;;;;1999.90;999.90;;;8.40;99.90;;;;;;5034220;28;20520;-68
2023/02/13 09:12:36;;;;;;;1999.90;999.90;;;8.50;99.90;;;;;;5034035;28;20178;-68
2023/02/13 09:15:01;;;;;;;1999.90;999.90;;;8.60;99.90;;;;;;5033881;28;20406;-68
2023/02/13 09:17:27;;;;;;;1999.90;999.90;;;8.70;99.90;;;;;;5033825;28;20174;-69
2023/02/13 09:19:52;;;;;;;1999.90;999.90;;;8.70;99.90;;;;;;5033586;28;20629;-69
2023/02/13 09:22:18;;;;;;;1999.90;999.90;;;8.80;99.90;;;;;;5033574;28;20176;-69
2023/02/13 09:24:43;;;;;;;1999.90;999.90;;;8.90;99.90;;;;;;5033671;28;20673;-69
2023/02/13 09:27:09;;;;;;;1999.90;999.90;;;8.90;99.90;;;;;;5033206;28;20169;-69
2023/02/13 09:29:35;;;;;;;1999.90;999.90;;;9.00;99.90;;;;;;5033182;28;20191;-69
2023/02/13 09:32:00;;;;;;;1999.90;999.90;;;9.00;99.90;;;;;;5033267;28;20185;-69
2023/02/13 09:34:26;;;;;;;1999.90;999.90;;;9.00;99.90;;;;;;5033180;28;20296;-69
2023/02/13 09:36:52;;;;;;;1999.90;999.90;;;9.10;99.90;;;;;;5033100;28;20169;-68
2023/02/13 09:39:18;;;;;;;1999.90;999.90;;;9.20;99.90;;;;;;5033053;28;20714;-70
2023/02/13 09:41:47;;;;;;;1999.90;999.90;;;9.30;99.90;;;;;;5032865;28;20547;-69
2023/02/13 09:44:32;;;;;;;1999.90;999.90;;;9.40;99.90;;;;;;5033207;28;20651;-69
2023/02/13 09:47:01;;;;;;;1999.90;999.90;;;9.40;99.90;;;;;;5033196;28;20840;-69
2023/02/13 09:49:31;;;;;;;1999.90;999.90;;;9.50;99.90;;;;;;5032969;28;20429;-69
2023/02/13 09:51:57;;;;;;;1999.90;999.90;;;9.60;99.90;;;;;;5032683;28;20495;-69
2023/02/13 09:54:25;;;;;;;1999.90;999.90;;;9.60;99.90;;;;;;5033005;28;20906;-69
2023/02/13 09:56:59;;;;;;;1999.90;999.90;;;9.70;99.90;;;;;;5032827;28;20416;-69
2023/02/13 09:59:25;;;;;;;1999.90;999.90;;;9.80;99.90;;;;;;5032843;28;20539;-69
2023/02/13 10:01:53;;;;;;;1999.90;999.90;;;9.80;99.90;;;;;;5032854;28;21052;-68
2023/02/13 10:04:24;;;;;;;1999.90;999.90;;;10.00;99.90;;;;;;5034313;28;20221;-69
2023/02/13 10:07:15;;;;;;;1999.90;999.90;;;10.10;99.90;;;;;;5045217;28;20461;-68
2023/02/13 10:09:53;;;;;;;1999.90;999.90;;;10.20;99.90;;;;;;4995030;28;20433;-69
2023/02/13 10:12:53;;;;;;;1999.90;999.90;;;10.30;99.90;;;;;;5045550;28;20402;-68
2023/02/13 10:15:52;;;;;;;1999.90;999.90;;;10.40;99.90;;;;;;5013007;28;20418;-69
2023/02/13 10:18:22;;;;;;;1999.90;999.90;;;10.50;99.90;;;;;;5043957;28;20409;-70
2023/02/13 10:20:53;;;;;;;1999.90;999.90;;;10.60;99.90;;;;;;5039485;28;20967;-69
2023/02/13 10:23:27;;;;;;;1999.90;999.90;;;10.70;99.90;;;;;;5042363;28;20405;-70
2023/02/13 10:25:57;;;;;;;1999.90;999.90;;;10.90;99.90;;;;;;5042013;28;20404;-69
2023/02/13 10:28:45;;;;;;;1999.90;999.90;;;11.00;99.90;;;;;;5041585;28;20493;-69
2023/02/13 10:31:22;;;;;;;1999.90;999.90;;;11.10;99.90;;;;;;5047105;28;20418;-69
2023/02/13 10:33:51;;;;;;;1999.90;999.90;;;11.20;99.90;;;;;;5036245;28;20399;-68
2023/02/13 10:36:28;;;;;;;1999.90;999.90;;;11.40;99.90;;;;;;5032474;28;20493;-69
2023/02/13 10:39:01;;;;;;;1999.90;999.90;;;11.50;99.90;;;;;;5032033;28;20807;-69
2023/02/13 10:41:56;;;;;;;1999.90;999.90;;;11.50;99.90;;;;;;5031898;28;20454;-68
2023/02/13 10:44:28;;;;;;;1999.90;999.90;;;11.60;99.90;;;;;;4996752;28;20840;-69
2023/02/13 10:47:00;;;;;;;1999.90;999.90;;;11.70;99.90;;;;;;5032185;28;20486;-68
2023/02/13 10:49:55;;;;;;;1999.90;999.90;;;11.70;99.90;;;;;;5032193;28;20868;-69
2023/02/13 10:52:46;;;;;;;1999.90;999.90;;;11.80;99.90;;;;;;5031936;28;20454;-69
2023/02/13 10:55:25;;;;;;;1999.90;999.90;;;11.90;99.90;;;;;;5032047;28;20413;-68
2023/02/13 10:58:15;;;;;;;1999.90;999.90;;;12.00;99.90;;;;;;5039141;28;20398;-70
2023/02/13 11:00:52;;;;;;;1999.90;999.90;;;12.20;99.90;;;;;;5038392;28;20454;-70
2023/02/13 11:03:21;;;;;;;1999.90;999.90;;;12.30;99.90;;;;;;5037976;28;20404;-70
2023/02/13 11:05:48;;;;;;;1999.90;999.90;;;12.40;99.90;;;;;;5038111;28;20410;-70
2023/02/13 11:08:20;;;;;;;1999.90;999.90;;;12.40;99.90;;;;;;5035425;28;20979;-70
2023/02/13 11:10:46;;;;;;;1999.90;999.90;;;12.50;99.90;;;;;;5033586;28;20465;-69
2023/02/13 11:13:20;;;;;;;1999.90;999.90;;;12.60;99.90;;;;;;5033492;28;20440;-70
2023/02/13 11:16:07;;;;;;;1999.90;999.90;;;12.70;99.90;;;;;;5040919;28;20786;-69
2023/02/13 11:18:38;;;;;;;1999.90;999.90;;;12.80;99.90;;;;;;5042566;28;20430;-68
2023/02/13 11:21:09;;;;;;;1999.90;999.90;;;12.80;99.90;;;;;;5046680;28;20486;-69
2023/02/13 11:23:42;;;;;;;1999.90;999.90;;;12.90;99.90;;;;;;5046663;28;20995;-69
2023/02/13 11:26:13;;;;;;;1999.90;999.90;;;12.90;99.90;;;;;;5043863;28;20400;-70
2023/02/13 11:28:53;;;;;;;1999.90;999.90;;;13.10;99.90;;;;;;5028387;28;20435;-69
2023/02/13 11:31:31;;;;;;;1999.90;999.90;;;13.30;99.90;;;;;;5043842;28;20773;-69
2023/02/13 11:33:58;;;;;;;1999.90;999.90;;;13.40;99.90;;;;;;5044437;28;20486;-69
2023/02/13 11:36:27;;;;;;;1999.90;999.90;;;13.50;99.90;;;;;;5045467;28;20404;-68
2023/02/13 11:39:05;;;;;;;1999.90;999.90;;;13.60;99.90;;;;;;5042738;28;20454;-67
2023/02/13 11:41:40;;;;;;;1999.90;999.90;;;13.70;99.90;;;;;;5048979;28;20514;-68
2023/02/13 11:44:25;;;;;;;1999.90;999.90;;;14.10;99.90;;;;;;5043242;28;20416;-69
2023/02/13 11:46:53;;;;;;;1999.90;999.90;;;14.60;99.90;;;;;;5036274;28;20412;-69
2023/02/13 11:49:22;;;;;;;1999.90;999.90;;;15.40;99.90;;;;;;5038432;28;20957;-70
2023/02/13 11:51:50;;;;;;;1999.90;999.90;;;16.40;99.90;;;;;;5041072;28;20409;-69
2023/02/13 11:54:31;;;;;;;1999.90;999.90;;;17.30;99.90;;;;;;5042440;28;20418;-69
2023/02/13 11:57:09;;;;;;;1999.90;999.90;;;18.20;99.90;;;;;;5025006;28;20420;-70
2023/02/13 11:59:40;;;;;;;1999.90;999.90;;;18.80;99.90;;;;;;5040407;28;20429;-70
2023/02/13 12:02:29;;;;;;;1999.90;999.90;;;19.50;99.90;;;;;;5038793;28;20451;-70
2023/02/13 12:05:14;;;;;;;1999.90;999.90;;;20.20;99.90;;;;;;5039792;28;20460;-70
2023/02/13 12:07:40;;;;;;;1999.90;999.90;;;20.60;92.80;;;;;;5039748;28;20402;-69
2023/02/13 12:10:29;;;;;;;1999.90;999.90;;;20.90;86.40;;;;;;5041224;28;20438;-69
2023/02/13 12:13:14;;;;;;;1999.90;999.90;;;21.20;88.40;;;;;;5040938;28;20410;-70
2023/02/13 12:15:40;;;;;;;1999.90;999.90;;;21.80;70.00;;;;;;5040400;28;20406;-70
2023/02/13 12:18:20;;;;;;;1999.90;999.90;;;22.20;65.00;;;;;;5040207;28;20459;-69
2023/02/13 12:20:57;;;;;;;1999.90;999.90;;;22.50;55.40;;;;;;5039818;28;20865;-70
2023/02/13 12:23:48;;;;;;;1999.90;999.90;;;22.90;53.90;;;;;;5039776;28;20807;-71
2023/02/13 12:26:43;;;;;;;1999.90;999.90;;;23.30;48.40;;;;;;5040950;28;20410;-71
2023/02/13 12:29:27;;;;;;;1999.90;999.90;;;23.80;40.50;;;;;;5018421;28;20443;-70
2023/02/13 12:31:52;;;;;;;1999.90;999.90;;;23.70;33.80;;;;;;5039406;28;20855;-70
2023/02/13 12:34:48;;;;;;;1999.90;999.90;;;24.10;36.50;;;;;;5041658;28;20421;-70
2023/02/13 12:37:18;;;;;;;1999.90;999.90;;;24.40;33.10;;;;;;5041057;28;20452;-71
2023/02/13 12:39:59;;;;;;;1999.90;999.90;;;24.90;30.90;;;;;;5041688;28;20486;-70
2023/02/13 12:42:36;;;;;;;1999.90;999.90;;;25.20;28.20;;;;;;5041004;28;20473;-70
2023/02/13 12:45:28;;;;;;;1999.90;999.90;;;25.10;26.30;;;;;;5041142;28;20400;-70
2023/02/13 12:48:16;;;;;;;1999.90;999.90;;;25.40;24.70;;;;;;5039855;28;20490;-71
2023/02/13 12:50:52;;;;;;;1999.90;999.90;;;25.20;24.50;;;;;;5040027;28;20382;-70
2023/02/13 12:53:45;;;;;;;1999.90;999.90;;;25.20;22.70;;;;;;5039735;28;20444;-70
2023/02/13 12:57:04;;;;;;;1999.90;999.90;;;25.50;22.90;;;;;;5039985;28;20419;-71
2023/02/13 13:00:02;;;;;;;1999.90;999.90;;;25.90;21.50;;;;;;5000455;28;20434;-70
2023/02/13 13:02:49;;;;;;;1999.90;999.90;;;25.90;18.20;;;;;;4984811;28;20422;-70
2023/02/13 13:05:28;;;;;;;1999.90;999.90;;;25.60;18.60;;;;;;5039689;28;20397;-71
2023/02/13 13:08:31;;;;;;;1999.90;999.90;;;25.70;18.80;;;;;;5038882;28;20476;-71
2023/02/13 13:11:23;;;;;;;1999.90;999.90;;;26.00;17.00;;;;;;5039380;28;20391;-71